TKU weather

Turku Airport
Turku, Western Finland, Finland

Public forecast

Using degrees Celsius for public forecast. Weather courtesy of forecast.io.

METAR (pilot weather report)

Retrieved 2019/05/23 03:20 UTC (0 seconds ago):

EFTU 230320Z AUTO 06007KT 9999 FEW014 BKN020 15/13 Q1008

TAF (pilot weather forecast)

Retrieved 2019/05/23 03:42 UTC (0 seconds ago):

TAF EFTU 230228Z 2303/2403 07005KT 9999 BKN015 BECMG 2313/2315 23010KT